»·PEaware :: NGF6389 KSMO-KBFL

NGF6389 :: KSMO-KBFL

FLIGHT INFORMATION

Flight Status: Arrived
Operator: Unknown
More flights by this operator :: More flights under this callsign
Pilot: Charlton B. (28558)
Aircraft: ECLIPSE 500
(EA50)
More flights by this aircraft type
Origin: KSMO Santa Monica Mun
United States
Destination: KBFL Meadows
United States
More flights between these airports :: More routes between these airports
Route: +SMO GMN FASTO2
File this flight plan on PilotEdge
Remarks:
Altitude:
(Current/Filed)
19,000ft
Speed:
(Current/Filed)
250kts
Departed: 29-Sep-20 12:58 PM
Arrived: 29-Sep-20 01:27 PM
Distance/Time
Traveled:
91nm/0:29
Distance/Time
To Go:
Arrived

Flight Plot

Page will automatically refresh every two minutes.

Flight plan parsing failed; only flown route is shown


Map Options




Map Legend


Flown Route
Filed Route
Departure Airport
Arrival Airport
Navaid (VOR, NDB)
Fix

Horizontal Profiles

Position Reports

Time Latitude Longitude Heading Altitude Ground
Speed
29-Sep-20 12:45 34.017578 -118.445198 330 157ft 0kts
29-Sep-20 12:46 34.017578 -118.445198 330 157ft 0kts
29-Sep-20 12:47 34.017578 -118.445198 330 157ft 0kts
29-Sep-20 12:48 34.017578 -118.445198 330 157ft 0kts
29-Sep-20 12:49 34.017837 -118.445158 14 158ft 5kts
29-Sep-20 12:50 34.018958 -118.445393 326 160ft 0kts
29-Sep-20 12:51 34.018958 -118.445393 326 160ft 0kts
29-Sep-20 12:52 34.018958 -118.445393 326 160ft 0kts
29-Sep-20 12:53 34.019273 -118.445534 356 160ft 9kts
29-Sep-20 12:54 34.018835 -118.446835 306 158ft 0kts
29-Sep-20 12:55 34.018835 -118.446835 306 158ft 0kts
29-Sep-20 12:56 34.018970 -118.447586 229 158ft 0kts
29-Sep-20 12:57 33.995667 -118.475399 227 987ft 201kts
29-Sep-20 12:58 33.988794 -118.536950 277 3004ft 204kts
29-Sep-20 13:00 33.995125 -118.600566 278 4966ft 182kts
29-Sep-20 13:01 34.022399 -118.644292 352 6915ft 189kts
29-Sep-20 13:02 34.078098 -118.652993 351 9431ft 212kts
29-Sep-20 13:03 34.137735 -118.662891 351 11940ft 230kts
29-Sep-20 13:04 34.203406 -118.674088 351 12840ft 233kts
29-Sep-20 13:05 34.264854 -118.695217 344 15671ft 235kts
29-Sep-20 13:06 34.329010 -118.715699 345 18094ft 244kts
29-Sep-20 13:07 34.399002 -118.737290 345 19076ft 289kts
29-Sep-20 13:08 34.479018 -118.761882 347 19060ft 295kts
29-Sep-20 13:09 34.558576 -118.786067 347 19056ft 295kts
29-Sep-20 13:10 34.638230 -118.810409 347 19147ft 298kts
29-Sep-20 13:11 34.718812 -118.835099 347 19237ft 301kts
29-Sep-20 13:12 34.795505 -118.858668 347 18226ft 254kts
29-Sep-20 13:13 34.860347 -118.861337 2 16317ft 222kts
29-Sep-20 13:14 34.920059 -118.861238 1 14414ft 212kts
29-Sep-20 13:15 34.972664 -118.861202 0 13750ft 171kts
29-Sep-20 13:16 35.025297 -118.861172 359 11311ft 218kts
29-Sep-20 13:16 35.078052 -118.860893 0 8646ft 235kts
29-Sep-20 13:18 35.153700 -118.859078 0 4910ft 233kts
29-Sep-20 13:19 35.207594 -118.857739 359 4280ft 172kts
29-Sep-20 13:19 35.251670 -118.857752 357 4280ft 196kts
29-Sep-20 13:20 35.295904 -118.889326 314 4175ft 196kts
29-Sep-20 13:21 35.330683 -118.931561 314 3307ft 137kts
29-Sep-20 13:23 35.362382 -118.969870 314 2432ft 144kts
29-Sep-20 13:23 35.385991 -118.998346 314 1776ft 142kts
29-Sep-20 13:24 35.413868 -119.032007 315 1016ft 132kts
29-Sep-20 13:25 35.434959 -119.057474 314 509ft 90kts
29-Sep-20 13:26 35.443695 -119.065706 173 502ft 0kts
29-Sep-20 13:27 35.439930 -119.061227 133 498ft 19kts
29-Sep-20 13:28 35.439801 -119.061065 135 498ft 0kts
29-Sep-20 13:29 35.439801 -119.061065 135 498ft 0kts
29-Sep-20 13:30 35.439801 -119.061065 135 498ft 0kts
29-Sep-20 13:31 35.439801 -119.061065 135 498ft 0kts
29-Sep-20 13:32 35.439801 -119.061065 135 498ft 0kts
29-Sep-20 13:33 35.439801 -119.061065 135 498ft 0kts
29-Sep-20 13:34 35.439801 -119.061065 135 498ft 0kts
29-Sep-20 13:35 35.439801 -119.061065 135 498ft 0kts
29-Sep-20 13:36 35.439801 -119.061065 135 498ft 0kts
29-Sep-20 13:37 35.439801 -119.061065 135 498ft 0kts
29-Sep-20 13:38 35.439801 -119.061065 135 498ft 0kts
29-Sep-20 13:39 35.439801 -119.061065 135 498ft 0kts
29-Sep-20 13:40 35.439801 -119.061065 135 498ft 0kts

Navigation Log

Ident Type
Flight plan parsing failed, navigation log unavailable